VOBG/BLR METAR and TAF weather

Enter ICAO airport designator
Station Type Date Time Source
VOBG METAR 2020/07/09 08:30 UTC NOAA

VOBG 090830Z 26007KT 9999 SCT012 SCT018 28/21 Q1010 NOSIG


Station Type Date Time Source
VOBG Decoded METAR 2020/07/09 08:30 UTC NOAA

Bangalore / Hindustan, India (VOBG) 12-57N 077-40E
Jul 09, 2020 - 04:30 AM EDT / 2020.07.09 0830 UTC
Wind: from the W (260 degrees) at 8 MPH (7 KT):0
Visibility: greater than 7 mile(s):0
Sky conditions: partly cloudy
Temperature: 82 F (28 C)
Dew Point: 69 F (21 C)
Relative Humidity: 65%
Pressure (altimeter): 29.83 in. Hg (1010 hPa)
ob: VOBG 090830Z 26007KT 9999 SCT012 SCT018 28/21 Q1010 NOSIG
cycle: 8

Station Type Date Time Source
VOBG TAF 2020/06/07 15:00 UTC NOAA

TAF VOBG 071400Z 0715/0724 23010KT 6000 SCT012 SCT080
TEMPO 0715/0718 4000 TSRA RA SCT012 FEW025CB BKN080

Example: see airport list